Terminal Aerodrome Forecast
Issued by NWS

Home | Current Version | Previous Version | Text Only | Print | Product List | Glossary On
Versions: 1 2 3 4 5 6 7 8 9 10 11 12 13 14
198
FTUS43 KICT 261124
TAFSLN
TAF
KSLN 261124Z 2612/2712 35008KT P6SM SKC
     FM262200 03008KT P6SM SKC
     FM270700 10006KT P6SM VCTS SCT035CB BKN150
     FM271000 10007KT P6SM BKN025=

USA.gov is the U.S. government's official web portal to all federal, state and local government web resources and services.